Time;durP1;ratioP1;P1;durP2;ratioP2;P2;SDS_P1;SDS_P2;PMS_P1;PMS_P2;Temp;Humidity;BMP_temperature;BMP_pressure;BME280_temperature;BME280_humidity;BME280_pressure;Samples;Min_cycle;Max_cycle;Signal;HPM_P1;HPM_P2
2023/10/02 00:01:52;;;;;;;15.48;9.07;;;;;;;17.75;84.96;101754.22;3617134;39;20323;-66
2023/10/02 00:04:24;;;;;;;15.40;9.30;;;;;;;17.97;84.86;101788.81;3619992;39;20107;-67
2023/10/02 00:07:05;;;;;;;18.95;9.63;;;;;;;17.94;85.52;101782.75;3620178;39;20119;-66
2023/10/02 00:09:34;;;;;;;18.63;9.52;;;;;;;17.93;85.50;101794.63;3617040;39;20070;-66
2023/10/02 00:12:13;;;;;;;14.13;9.05;;;;;;;17.90;85.64;101784.84;3618023;39;20066;-65
2023/10/02 00:14:41;;;;;;;15.82;8.90;;;;;;;17.91;85.28;101791.13;3612571;39;20286;-66
2023/10/02 00:17:18;;;;;;;16.27;9.20;;;;;;;17.89;85.87;101791.28;3615349;39;20428;-66
2023/10/02 00:19:52;;;;;;;17.63;10.10;;;;;;;17.88;85.77;101783.22;3616700;39;20055;-65
2023/10/02 00:22:36;;;;;;;17.33;9.07;;;;;;;17.80;85.91;101781.97;3616734;39;20046;-68
2023/10/02 00:25:27;;;;;;;15.13;9.05;;;;;;;17.83;85.89;101795.31;3616131;39;20067;-67
2023/10/02 00:27:54;;;;;;;16.90;9.63;;;;;;;17.82;85.42;101790.00;3604285;39;20087;-66
2023/10/02 00:30:30;;;;;;;15.63;8.80;;;;;;;17.80;86.47;101795.56;3617369;39;20095;-67
2023/10/02 00:32:56;;;;;;;14.30;8.75;;;;;;;17.81;85.76;101786.41;3618395;39;20107;-67
2023/10/02 00:35:22;;;;;;;15.50;9.23;;;;;;;17.80;85.78;101784.69;3618220;39;20055;-66
2023/10/02 00:37:47;;;;;;;16.33;9.57;;;;;;;17.79;86.48;101785.69;3613341;39;20341;-65
2023/10/02 00:40:26;;;;;;;14.68;8.70;;;;;;;17.76;86.36;101785.00;3616190;39;20047;-66
2023/10/02 00:45:50;;;;;;;16.05;9.25;;;;;;;17.57;86.73;101759.22;3610452;39;20481;-67
2023/10/02 00:48:25;;;;;;;16.98;9.63;;;;;;;17.74;85.97;101781.53;3619399;39;20057;-68
2023/10/02 00:50:58;;;;;;;18.90;9.48;;;;;;;17.69;85.81;101779.16;3616168;39;20049;-67
2023/10/02 00:53:46;;;;;;;16.33;9.43;;;;;;;17.65;86.66;101780.38;3615814;39;20039;-68
2023/10/02 00:56:23;;;;;;;14.95;9.27;;;;;;;17.67;87.08;101778.44;3615300;39;20265;-67
2023/10/02 00:58:55;;;;;;;15.15;9.45;;;;;;;17.65;86.62;101780.38;3615639;39;20047;-67
2023/10/02 01:01:25;;;;;;;14.82;8.80;;;;;;;17.63;86.45;101776.91;3618307;39;20263;-67
2023/10/02 01:04:11;;;;;;;17.10;9.00;;;;;;;17.61;86.76;101777.03;3617912;39;20100;-67
2023/10/02 01:06:54;;;;;;;16.35;9.52;;;;;;;17.37;86.80;101744.41;3618916;39;20049;-66
2023/10/02 01:09:27;;;;;;;18.67;9.85;;;;;;;17.53;87.46;101773.16;3609991;39;20158;-66
2023/10/02 01:11:57;;;;;;;14.95;8.90;;;;;;;17.51;86.74;101769.72;3620080;39;20042;-67
2023/10/02 01:17:14;;;;;;;14.88;8.73;;;;;;;17.43;87.13;101766.69;3616289;39;20128;-67
2023/10/02 01:19:57;;;;;;;15.25;8.88;;;;;;;17.39;87.77;101772.38;3615697;39;20055;-66
2023/10/02 01:22:43;;;;;;;14.95;9.60;;;;;;;17.35;87.53;101760.00;3618631;39;20071;-67
2023/10/02 01:25:13;;;;;;;16.00;10.15;;;;;;;17.36;88.17;101764.44;3618086;39;20043;-66
2023/10/02 01:27:46;;;;;;;15.95;9.82;;;;;;;17.22;87.78;101744.72;3614370;39;20055;-66
2023/10/02 01:30:18;;;;;;;18.42;10.15;;;;;;;17.34;87.98;101768.25;3617464;39;20278;-68
2023/10/02 01:33:21;;;;;;;19.48;10.07;;;;;;;17.32;88.40;101760.22;3616414;39;20050;-67
2023/10/02 01:35:49;;;;;;;17.73;9.75;;;;;;;17.35;88.27;101760.00;3614845;39;20066;-67
2023/10/02 01:38:31;;;;;;;15.63;9.82;;;;;;;17.35;88.34;101765.44;3617557;39;20314;-66
2023/10/02 01:41:04;;;;;;;16.85;9.55;;;;;;;17.35;88.28;101756.41;3617257;39;20182;-67
2023/10/02 01:43:55;;;;;;;18.58;9.77;;;;;;;17.35;87.73;101762.72;3616738;39;20386;-66
2023/10/02 01:46:22;;;;;;;15.68;9.75;;;;;;;17.26;88.04;101743.53;3614951;39;20051;-68
2023/10/02 01:48:50;;;;;;;19.15;10.77;;;;;;;17.32;87.89;101754.78;3616093;39;20375;-66
2023/10/02 01:51:20;;;;;;;19.77;11.73;;;;;;;16.88;88.14;101684.78;3609513;39;20051;-69
2023/10/02 01:54:19;;;;;;;18.10;9.82;;;;;;;17.35;88.46;101764.56;3617012;39;20050;-68
2023/10/02 01:56:47;;;;;;;17.42;9.15;;;;;;;17.33;88.02;101756.50;3615208;39;20128;-69
2023/10/02 01:59:19;;;;;;;18.27;9.43;;;;;;;17.28;88.26;101741.53;3616512;39;20050;-66
2023/10/02 02:01:52;;;;;;;15.30;9.30;;;;;;;17.34;87.92;101754.66;3614578;39;20047;-67
2023/10/02 02:04:32;;;;;;;16.15;9.65;;;;;;;17.37;87.62;101751.72;3605904;39;20315;-68
2023/10/02 02:07:01;;;;;;;15.93;9.68;;;;;;;17.35;87.73;101754.56;3616199;39;20061;-66
2023/10/02 02:09:31;;;;;;;16.98;10.15;;;;;;;17.33;87.94;101750.22;3619801;39;20042;-68
2023/10/02 02:12:11;;;;;;;19.65;9.98;;;;;;;17.31;88.34;101753.03;3608952;39;20069;-67
2023/10/02 02:14:51;;;;;;;18.92;10.25;;;;;;;17.30;87.68;101751.31;3618792;39;20061;-66
2023/10/02 02:17:28;;;;;;;17.02;9.90;;;;;;;17.25;88.41;101753.50;3615614;39;20156;-68
2023/10/02 02:20:11;;;;;;;16.60;9.77;;;;;;;16.92;88.34;101706.16;3618626;39;20057;-67
2023/10/02 02:22:37;;;;;;;18.20;9.93;;;;;;;17.21;88.04;101757.44;3616880;39;20058;-67
2023/10/02 02:25:06;;;;;;;17.20;9.55;;;;;;;17.18;88.28;101754.94;3617185;39;20095;-66
2023/10/02 02:27:31;;;;;;;16.35;9.80;;;;;;;17.15;88.23;101755.19;3616826;39;20045;-66
2023/10/02 02:29:59;;;;;;;16.70;9.85;;;;;;;17.12;88.98;101745.41;3616708;39;20318;-67
2023/10/02 02:32:36;;;;;;;16.75;9.55;;;;;;;17.09;88.62;101748.34;3617793;39;20433;-67
2023/10/02 02:35:09;;;;;;;17.52;9.82;;;;;;;17.12;88.92;101752.69;3616446;39;20045;-66
2023/10/02 02:37:34;;;;;;;17.55;9.50;;;;;;;17.11;88.97;101751.81;3617490;39;20358;-67
2023/10/02 02:42:51;;;;;;;16.75;9.60;;;;;;;16.63;89.36;101672.97;3616903;39;20095;-67
2023/10/02 02:45:28;;;;;;;17.35;9.80;;;;;;;17.08;88.84;101743.03;3615214;39;20067;-68
2023/10/02 02:47:55;;;;;;;16.33;9.18;;;;;;;17.07;89.15;101738.59;3615303;39;20217;-67
2023/10/02 02:50:28;;;;;;;17.00;9.75;;;;;;;17.08;89.20;101734.88;3607878;39;20058;-68
2023/10/02 02:55:40;;;;;;;17.20;9.05;;;;;;;17.11;88.93;101737.38;3615982;39;20053;-68
2023/10/02 02:58:07;;;;;;;16.23;9.38;;;;;;;17.10;88.42;101732.94;3615934;39;20332;-68
2023/10/02 03:00:35;;;;;;;17.50;9.88;;;;;;;17.09;89.12;101731.19;3615762;39;20046;-67
2023/10/02 03:03:03;;;;;;;16.60;9.38;;;;;;;17.07;88.24;101728.59;3615003;39;20051;-67
2023/10/02 03:05:40;;;;;;;19.38;9.68;;;;;;;17.07;88.43;101735.88;3615122;39;20050;-67
2023/10/02 03:08:08;;;;;;;16.92;9.80;;;;;;;17.06;89.33;101734.13;3607186;39;20406;-67
2023/10/02 03:10:39;;;;;;;18.42;10.27;;;;;;;16.99;88.65;101724.72;3617227;39;20078;-67
2023/10/02 03:13:15;;;;;;;18.27;10.07;;;;;;;17.00;88.43;101726.44;3616394;39;20110;-68
2023/10/02 03:15:48;;;;;;;19.33;10.25;;;;;;;17.00;88.74;101729.16;3617954;39;20058;-67
2023/10/02 03:18:23;;;;;;;16.95;9.40;;;;;;;16.98;89.41;101722.97;3614873;39;20051;-67
2023/10/02 03:20:52;;;;;;;19.15;10.50;;;;;;;16.99;88.67;101711.13;3616134;39;20050;-67
2023/10/02 03:23:18;;;;;;;16.00;9.73;;;;;;;17.00;89.29;101710.13;3613784;39;20148;-67
2023/10/02 03:25:47;;;;;;;18.40;10.10;;;;;;;16.99;88.36;101705.69;3612942;39;20047;-67
2023/10/02 03:28:27;;;;;;;16.83;9.40;;;;;;;17.03;88.41;101704.47;3615621;39;20070;-68
2023/10/02 03:30:58;;;;;;;17.80;10.38;;;;;;;17.02;88.34;101713.63;3615247;39;20062;-68
2023/10/02 03:33:30;;;;;;;17.27;9.65;;;;;;;17.03;88.76;101715.34;3616741;39;20095;-67
2023/10/02 03:35:58;;;;;;;16.83;9.75;;;;;;;16.94;88.13;101698.75;3614893;39;20059;-67
2023/10/02 03:38:33;;;;;;;18.25;9.75;;;;;;;16.98;88.15;101707.53;3616875;39;20042;-67
2023/10/02 03:41:03;;;;;;;17.70;9.70;;;;;;;17.02;88.55;101710.91;3615357;39;20171;-68
2023/10/02 03:43:35;;;;;;;17.92;9.85;;;;;;;16.90;88.06;101691.84;3607278;39;20400;-67
2023/10/02 03:46:15;;;;;;;18.77;10.73;;;;;;;17.01;88.58;101715.47;3614796;39;20614;-68
2023/10/02 03:48:50;;;;;;;17.85;10.55;;;;;;;17.00;88.85;101715.56;3614931;39;20043;-67
2023/10/02 03:51:36;;;;;;;22.20;14.38;;;;;;;16.92;87.61;101694.44;3616166;39;20378;-67
2023/10/02 03:54:18;;;;;;;20.13;13.02;;;;;;;17.04;87.90;101711.66;3616099;39;20305;-67
2023/10/02 03:56:51;;;;;;;16.48;9.50;;;;;;;17.06;87.62;101709.69;3614415;39;20043;-67
2023/10/02 03:59:27;;;;;;;15.60;9.75;;;;;;;17.07;87.11;101714.16;3613992;39;20111;-66
2023/10/02 04:04:42;;;;;;;19.05;9.88;;;;;;;17.06;87.29;101712.38;3615786;39;20397;-68
2023/10/02 04:07:08;;;;;;;18.70;9.68;;;;;;;17.05;87.76;101721.53;3613186;39;20047;-67
2023/10/02 04:09:36;;;;;;;19.92;10.48;;;;;;;17.04;87.87;101711.66;3613745;39;20062;-68
2023/10/02 04:12:04;;;;;;;18.50;10.13;;;;;;;17.03;87.00;101709.91;3613137;39;20207;-67
2023/10/02 04:14:33;;;;;;;18.30;10.30;;;;;;;16.90;87.41;101694.56;3613413;39;20057;-68
2023/10/02 04:19:40;;;;;;;18.23;10.07;;;;;;;17.00;87.58;101715.56;3616960;39;20461;-67
2023/10/02 04:22:16;;;;;;;20.15;9.80;;;;;;;17.03;87.24;101716.22;3616657;39;20140;-68
2023/10/02 04:24:58;;;;;;;16.98;9.68;;;;;;;17.03;87.34;101709.91;3615848;39;20124;-69
2023/10/02 04:27:28;;;;;;;17.38;10.25;;;;;;;17.03;87.34;101709.91;3616920;39;20095;-68
2023/10/02 04:32:42;;;;;;;18.80;9.73;;;;;;;16.86;87.33;101690.31;3617930;39;20047;-68
2023/10/02 04:37:58;;;;;;;15.95;9.80;;;;;;;16.67;87.90;101674.47;3620100;39;20288;-67
2023/10/02 04:40:37;;;;;;;17.73;9.93;;;;;;;16.85;87.32;101707.59;3619156;39;20051;-69
2023/10/02 04:43:19;;;;;;;19.90;10.40;;;;;;;16.82;87.31;101706.97;3609724;39;20103;-67
2023/10/02 04:45:52;;;;;;;20.10;10.30;;;;;;;16.79;87.83;101708.03;3614774;39;20370;-68
2023/10/02 04:48:25;;;;;;;18.00;9.98;;;;;;;16.78;88.51;101711.75;3620280;39;20047;-67
2023/10/02 04:50:53;;;;;;;18.70;9.60;;;;;;;16.44;87.57;101654.47;3618616;39;20057;-67
2023/10/02 04:53:22;;;;;;;19.95;10.27;;;;;;;16.76;88.07;101710.13;3618723;39;20385;-68
2023/10/02 04:56:01;;;;;;;16.00;9.27;;;;;;;16.74;88.22;101707.47;3614714;39;20047;-68
2023/10/02 04:58:28;;;;;;;15.95;9.55;;;;;;;16.74;88.04;101702.03;3617428;39;20374;-68
2023/10/02 05:03:36;;;;;;;18.40;10.30;;;;;;;16.65;88.11;101683.72;3616095;39;20506;-67
2023/10/02 05:06:03;;;;;;;18.50;10.00;;;;;;;16.72;87.87;101701.31;3615379;39;20051;-69
2023/10/02 05:08:40;;;;;;;20.05;10.18;;;;;;;16.44;87.63;101665.31;3617685;39;20089;-68
2023/10/02 05:11:26;;;;;;;17.60;9.57;;;;;;;16.62;87.66;101686.69;3614929;39;20123;-68
2023/10/02 05:13:59;;;;;;;20.10;10.15;;;;;;;16.61;88.38;101698.50;3615810;39;20047;-67
2023/10/02 05:16:33;;;;;;;19.45;10.02;;;;;;;16.61;88.20;101698.50;3615363;39;20051;-68
2023/10/02 05:19:01;;;;;;;17.45;10.25;;;;;;;16.56;88.79;101709.72;3616693;39;20427;-68
2023/10/02 05:21:38;;;;;;;16.33;9.85;;;;;;;16.25;88.66;101654.09;3615152;39;20062;-68
2023/10/02 05:24:12;;;;;;;15.80;9.50;;;;;;;16.09;88.98;101637.19;3617005;39;20047;-67
2023/10/02 05:26:41;;;;;;;16.45;9.35;;;;;;;16.57;88.86;101716.00;3617181;39;20128;-68
2023/10/02 05:29:12;;;;;;;18.38;10.60;;;;;;;16.57;89.51;101699.72;3616678;39;20278;-68
2023/10/02 05:31:41;;;;;;;16.75;9.82;;;;;;;16.59;88.92;101716.78;3615100;39;20051;-65
2023/10/02 05:34:24;;;;;;;20.92;10.70;;;;;;;16.58;88.76;101706.88;3615472;39;20341;-67
2023/10/02 05:39:39;;;;;;;19.75;9.93;;;;;;;16.59;88.87;101705.91;3616702;39;20420;-67
2023/10/02 05:42:13;;;;;;;24.00;15.63;;;;;;;16.58;89.06;101710.44;3612890;39;20049;-68
2023/10/02 05:44:47;;;;;;;21.45;13.13;;;;;;;16.30;88.85;101662.78;3615934;39;20099;-67
2023/10/02 05:47:16;;;;;;;19.92;11.18;;;;;;;16.52;88.66;101696.47;3615139;39;20628;-67
2023/10/02 05:49:49;;;;;;;18.02;10.65;;;;;;;16.54;88.46;101719.81;3606857;39;20064;-65
2023/10/02 05:52:18;;;;;;;19.57;10.63;;;;;;;16.54;89.08;101711.66;3615765;39;20074;-65
2023/10/02 05:54:53;;;;;;;20.60;10.23;;;;;;;16.54;88.50;101719.81;3615701;39;20272;-65
2023/10/02 05:57:19;;;;;;;19.60;10.50;;;;;;;16.57;88.94;101732.28;3615559;39;20059;-66
2023/10/02 05:59:48;;;;;;;19.80;10.88;;;;;;;16.57;88.52;101733.16;3616791;39;20051;-65
2023/10/02 06:02:19;;;;;;;18.38;10.07;;;;;;;16.11;89.20;101656.91;3614321;39;20046;-64
2023/10/02 06:04:48;;;;;;;18.25;9.48;;;;;;;16.48;88.61;101721.09;3614138;39;20188;-65
2023/10/02 06:10:25;;;;;;;19.02;10.48;;;;;;;16.56;88.32;101723.28;3615388;39;20385;-66
2023/10/02 06:13:03;;;;;;;17.30;10.43;;;;;;;16.62;89.47;101725.56;3613514;39;20051;-65
2023/10/02 06:15:48;;;;;;;19.80;10.77;;;;;;;16.63;88.81;101721.84;3614787;39;20043;-65
2023/10/02 06:18:24;;;;;;;19.67;10.98;;;;;;;16.50;88.95;101695.72;3616654;39;20453;-66
2023/10/02 06:21:00;;;;;;;18.30;10.13;;;;;;;16.77;88.16;101731.72;3613771;39;20116;-66
2023/10/02 06:23:37;;;;;;;21.50;11.95;;;;;;;16.82;88.08;101734.97;3609463;39;20056;-66
2023/10/02 06:26:09;;;;;;;22.65;11.38;;;;;;;16.89;87.47;101733.53;3616229;39;20051;-65
2023/10/02 06:28:36;;;;;;;21.92;11.05;;;;;;;16.94;87.76;101736.78;3615302;39;20063;-65
2023/10/02 06:31:06;;;;;;;19.55;11.10;;;;;;;16.99;87.19;101736.44;3614193;39;20370;-66
2023/10/02 06:33:36;;;;;;;18.80;10.85;;;;;;;17.03;86.39;101734.34;3615857;39;20050;-65
2023/10/02 06:36:07;;;;;;;21.95;11.52;;;;;;;17.06;86.43;101734.13;3616488;39;20050;-66
2023/10/02 06:38:33;;;;;;;20.60;11.35;;;;;;;17.09;86.40;101734.75;3615616;39;20370;-65
2023/10/02 06:41:07;;;;;;;20.58;11.38;;;;;;;17.13;86.36;101732.72;3614590;39;20063;-65
2023/10/02 06:43:33;;;;;;;21.45;11.45;;;;;;;17.18;85.79;101738.66;3615636;39;20047;-65
2023/10/02 06:46:13;;;;;;;20.35;11.85;;;;;;;17.25;85.87;101747.19;3615541;39;20127;-66
2023/10/02 06:48:43;;;;;;;23.92;16.13;;;;;;;17.30;85.74;101750.44;3615006;39;20054;-64
2023/10/02 06:51:15;;;;;;;32.40;21.42;;;;;;;17.35;86.01;101746.41;3615177;39;20045;-66
2023/10/02 06:53:41;;;;;;;19.00;12.10;;;;;;;17.40;85.37;101741.47;3616876;39;20055;-66
2023/10/02 06:56:12;;;;;;;20.08;10.85;;;;;;;17.43;85.47;101751.25;3616906;39;20502;-66
2023/10/02 06:58:56;;;;;;;20.20;11.32;;;;;;;17.48;85.42;101754.50;3615358;39;20072;-65
2023/10/02 07:01:27;;;;;;;18.73;11.05;;;;;;;17.52;84.77;101742.38;3614886;39;20059;-67
2023/10/02 07:03:54;;;;;;;21.00;10.77;;;;;;;17.59;84.96;101740.94;3616607;39;20065;-65
2023/10/02 07:06:26;;;;;;;22.05;12.05;;;;;;;17.66;84.81;101743.19;3615995;39;20108;-65
2023/10/02 07:09:12;;;;;;;21.10;11.95;;;;;;;17.72;84.47;101735.41;3616266;39;20050;-64
2023/10/02 07:11:45;;;;;;;23.15;11.30;;;;;;;17.83;84.18;101735.50;3615936;39;20054;-65
2023/10/02 07:14:12;;;;;;;20.65;11.45;;;;;;;17.94;83.85;101741.94;3615162;39;20523;-66
2023/10/02 07:16:38;;;;;;;23.83;11.60;;;;;;;18.06;83.25;101735.53;3614431;39;20393;-66
2023/10/02 07:19:04;;;;;;;21.02;11.35;;;;;;;18.19;82.79;101732.69;3616442;39;20062;-65
2023/10/02 07:21:31;;;;;;;20.17;10.82;;;;;;;18.32;82.14;101726.16;3616743;39;20087;-66
2023/10/02 07:24:04;;;;;;;21.13;11.05;;;;;;;18.51;80.73;101741.00;3614395;39;20417;-66
2023/10/02 07:26:49;;;;;;;20.48;11.20;;;;;;;18.67;80.21;101749.66;3605956;39;20055;-65
2023/10/02 07:29:17;;;;;;;19.77;11.05;;;;;;;18.87;79.43;101745.34;3616227;39;20054;-65
2023/10/02 07:31:44;;;;;;;17.15;10.15;;;;;;;19.04;78.88;101741.22;3613757;39;20048;-65
2023/10/02 07:34:11;;;;;;;20.88;11.27;;;;;;;19.19;77.73;101744.53;3610277;39;20043;-65
2023/10/02 07:36:44;;;;;;;18.65;10.70;;;;;;;19.39;76.99;101746.44;3610504;39;20090;-65
2023/10/02 07:39:35;;;;;;;;;;;;;;;19.47;76.64;101754.84;3616178;39;20053;-65
2023/10/02 07:42:04;;;;;;;19.15;10.52;;;;;;;19.56;75.70;101753.19;3611837;39;19949;-65
2023/10/02 07:44:38;;;;;;;19.30;10.65;;;;;;;19.57;75.40;101752.22;3613194;39;20098;-65
2023/10/02 07:47:20;;;;;;;22.90;12.50;;;;;;;19.58;75.98;101751.22;3614100;39;20111;-67
2023/10/02 07:49:51;;;;;;;21.70;12.18;;;;;;;19.49;75.26;101731.03;3611825;39;20057;-64
2023/10/02 07:52:36;;;;;;;20.00;11.52;;;;;;;19.63;75.62;101748.97;3618035;39;20377;-65
2023/10/02 07:55:02;;;;;;;21.17;13.07;;;;;;;19.66;76.17;101743.28;3609524;39;20065;-65
2023/10/02 07:57:32;;;;;;;24.10;14.45;;;;;;;19.69;76.86;101745.75;3613988;39;20062;-65
2023/10/02 08:00:49;;;;;;;21.15;11.55;;;;;;;19.69;75.12;101739.41;3614000;39;20043;-65
2023/10/02 08:02:52;;;;;;;18.73;10.60;;;;;;;19.69;75.59;101748.47;3610964;39;20061;-65
2023/10/02 08:05:21;;;;;;;20.60;12.20;;;;;;;19.66;75.02;101743.28;3616338;39;20047;-64
2023/10/02 08:07:48;;;;;;;22.02;12.20;;;;;;;19.63;75.48;101738.06;3614476;39;20066;-66
2023/10/02 08:10:15;;;;;;;19.42;11.45;;;;;;;19.62;76.53;101751.81;3613880;39;20063;-65
2023/10/02 08:12:54;;;;;;;21.67;11.25;;;;;;;19.59;75.95;101742.00;3613100;39;20047;-65
2023/10/02 08:15:26;;;;;;;21.20;10.63;;;;;;;19.66;76.61;101751.47;3614267;39;20062;-66
2023/10/02 08:20:36;;;;;;;20.63;11.13;;;;;;;19.89;76.93;101749.47;3615052;39;20042;-65
2023/10/02 08:23:22;;;;;;;24.65;11.70;;;;;;;20.12;75.29;101750.19;3612511;39;20119;-65
2023/10/02 08:26:02;;;;;;;18.45;10.68;;;;;;;20.35;74.76;101755.50;3615690;39;20385;-65
2023/10/02 08:28:35;;;;;;;23.40;11.20;;;;;;;20.57;73.61;101749.88;3613078;39;20067;-65
2023/10/02 08:31:02;;;;;;;20.85;11.65;;;;;;;20.73;73.54;101738.44;3614038;39;20050;-66
2023/10/02 08:33:31;;;;;;;19.67;10.95;;;;;;;20.98;71.34;101752.59;3614098;39;20067;-64
2023/10/02 08:35:58;;;;;;;19.67;11.60;;;;;;;21.23;71.29;101756.69;3614179;39;20063;-65
2023/10/02 08:38:26;;;;;;;18.55;11.15;;;;;;;21.45;69.92;101755.59;3607414;39;20324;-65
2023/10/02 08:41:03;;;;;;;21.48;11.40;;;;;;;21.72;69.00;101750.25;3612922;39;20097;-64
2023/10/02 08:43:32;;;;;;;20.85;10.73;;;;;;;22.03;68.40;101753.66;3612497;39;20111;-64
2023/10/02 08:45:59;;;;;;;19.45;11.35;;;;;;;22.36;68.10;101754.22;3612417;39;20050;-64
2023/10/02 08:48:25;;;;;;;20.25;11.27;;;;;;;22.58;65.77;101754.84;3614010;39;20043;-64
2023/10/02 08:50:58;;;;;;;18.55;11.20;;;;;;;22.73;65.46;101757.94;3612560;39;20122;-65
2023/10/02 08:53:27;;;;;;;21.88;11.40;;;;;;;22.86;64.04;101759.31;3613591;39;20395;-64
2023/10/02 08:56:04;;;;;;;19.65;11.20;;;;;;;22.89;64.90;101759.00;3614649;39;20065;-64
2023/10/02 08:58:29;;;;;;;18.27;10.55;;;;;;;22.82;64.12;101743.34;3606143;39;20134;-66
2023/10/02 09:03:42;;;;;;;23.85;11.60;;;;;;;22.62;64.88;101740.69;3615314;39;20049;-64
2023/10/02 09:06:30;;;;;;;20.67;11.73;;;;;;;22.53;66.37;101738.00;3614368;39;20377;-65
2023/10/02 09:11:44;;;;;;;19.30;11.10;;;;;;;22.34;66.50;101720.63;3617997;39;20404;-64
2023/10/02 09:14:39;;;;;;;21.15;11.40;;;;;;;22.43;67.53;101743.50;3616113;39;20079;-65
2023/10/02 09:17:07;;;;;;;20.13;11.25;;;;;;;22.33;66.19;101740.81;3618262;39;20400;-65
2023/10/02 09:19:34;;;;;;;20.77;11.43;;;;;;;22.29;66.81;101743.97;3614612;39;20057;-63
2023/10/02 09:22:07;;;;;;;20.17;11.32;;;;;;;22.28;67.62;101742.25;3617309;39;20055;-66
2023/10/02 09:25:09;;;;;;;19.20;10.85;;;;;;;22.23;67.69;101729.00;3618938;39;20043;-66
2023/10/02 09:27:54;;;;;;;19.55;11.40;;;;;;;22.22;67.74;101735.50;3612194;39;20047;-63
2023/10/02 09:33:22;;;;;;;21.60;13.45;;;;;;;22.22;67.95;101743.72;3617170;39;20063;-63
2023/10/02 09:35:51;;;;;;;21.27;12.40;;;;;;;22.21;67.61;101736.53;3613526;39;20082;-65
2023/10/02 09:38:22;;;;;;;19.92;11.45;;;;;;;22.16;67.72;101733.34;3614862;39;20050;-64
2023/10/02 09:40:54;;;;;;;19.23;11.65;;;;;;;22.08;68.51;101746.91;3617330;39;20122;-64
2023/10/02 09:43:24;;;;;;;21.38;11.55;;;;;;;22.01;69.01;101741.13;3620973;39;20073;-64
2023/10/02 09:46:05;;;;;;;21.70;12.10;;;;;;;22.00;69.64;101745.75;3616095;39;20098;-64
2023/10/02 09:51:27;;;;;;;20.05;11.38;;;;;;;22.08;70.95;101730.47;3618195;39;20297;-64
2023/10/02 09:54:13;;;;;;;19.25;11.18;;;;;;;22.43;71.48;101729.81;3615044;39;20166;-64
2023/10/02 09:57:12;;;;;;;22.77;12.00;;;;;;;22.89;70.67;101733.47;3619139;39;20054;-63
2023/10/02 09:59:46;;;;;;;22.15;11.65;;;;;;;23.28;65.63;101736.00;3622188;39;20402;-63
2023/10/02 10:07:51;;;;;;;21.15;11.77;;;;;;;24.23;60.84;101740.78;3617518;39;20088;-66
2023/10/02 10:11:15;;;;;;;19.55;11.63;;;;;;;24.50;60.54;101734.25;3615132;39;20115;-65
2023/10/02 10:13:37;;;;;;;19.60;11.23;;;;;;;24.78;58.54;101732.16;3611020;39;20308;-63
2023/10/02 10:16:29;;;;;;;20.27;11.80;;;;;;;24.78;59.38;101723.91;3614231;39;20050;-63
2023/10/02 10:21:56;;;;;;;18.90;10.82;;;;;;;24.85;60.58;101693.00;3614019;39;20491;-65
2023/10/02 10:24:55;;;;;;;20.15;11.63;;;;;;;25.14;58.45;101715.44;3614232;39;20371;-64
2023/10/02 10:27:39;;;;;;;18.40;10.43;;;;;;;25.33;57.78;101716.16;3613821;39;20370;-63
2023/10/02 10:30:39;;;;;;;18.98;11.00;;;;;;;25.32;56.38;101711.69;3617613;39;20369;-64
2023/10/02 10:35:35;;;;;;;19.73;11.00;;;;;;;25.31;57.81;101709.94;3613200;39;20103;-64
2023/10/02 10:41:27;;;;;;;19.85;11.52;;;;;;;25.43;57.64;101703.94;3622301;39;20130;-63
2023/10/02 10:43:56;;;;;;;18.25;10.95;;;;;;;25.45;57.23;101696.38;3615219;39;20058;-66
2023/10/02 10:46:32;;;;;;;18.63;10.95;;;;;;;25.44;57.71;101697.44;3614885;39;20046;-65
2023/10/02 10:49:09;;;;;;;20.25;11.05;;;;;;;25.38;59.65;101700.88;3614369;39;20092;-63
2023/10/02 10:51:39;;;;;;;26.08;14.98;;;;;;;25.24;58.54;101704.28;3614477;39;20140;-65
2023/10/02 10:54:13;;;;;;;21.05;11.98;;;;;;;25.17;59.71;101698.59;3615724;39;20057;-65
2023/10/02 10:56:44;;;;;;;20.30;11.50;;;;;;;24.96;58.58;101679.78;3618194;39;20059;-65
2023/10/02 10:59:12;;;;;;;16.73;10.77;;;;;;;24.88;59.35;101687.16;3620442;39;20057;-66
2023/10/02 11:01:48;;;;;;;18.55;11.68;;;;;;;24.74;59.76;101685.91;3606273;39;20147;-64
2023/10/02 11:04:26;;;;;;;21.85;12.85;;;;;;;24.71;61.11;101698.09;3615738;39;20051;-64
2023/10/02 11:06:52;;;;;;;23.02;11.32;;;;;;;24.66;61.25;101688.63;3617845;39;20059;-65
2023/10/02 11:09:18;;;;;;;21.27;11.55;;;;;;;24.85;62.18;101676.47;3619772;39;20084;-64
2023/10/02 11:11:49;;;;;;;20.08;11.15;;;;;;;24.88;59.58;101681.66;3615425;39;20058;-64
2023/10/02 11:14:34;;;;;;;19.63;11.88;;;;;;;24.83;60.02;101684.03;3615364;39;20053;-64
2023/10/02 11:17:04;;;;;;;19.27;11.40;;;;;;;24.67;61.11;101647.19;3615681;39;20127;-64
2023/10/02 11:22:21;;;;;;;19.05;10.90;;;;;;;25.35;59.28;101673.69;3615594;39;20059;-64
2023/10/02 11:24:53;;;;;;;20.00;11.13;;;;;;;25.74;58.21;101669.38;3618752;39;20039;-65
2023/10/02 11:27:21;;;;;;;20.88;11.23;;;;;;;26.02;56.90;101678.13;3613716;39;20042;-64
2023/10/02 11:30:02;;;;;;;19.65;10.75;;;;;;;26.26;58.17;101664.28;3612847;39;20497;-64
2023/10/02 11:32:59;;;;;;;17.63;10.18;;;;;;;26.76;55.94;101667.72;3613937;39;20489;-64
2023/10/02 11:35:28;;;;;;;17.40;10.15;;;;;;;27.06;53.95;101666.84;3611572;39;20043;-64
2023/10/02 11:37:56;;;;;;;18.38;10.63;;;;;;;27.31;55.12;101667.56;3617800;39;20043;-64
2023/10/02 11:40:25;;;;;;;17.10;10.27;;;;;;;27.60;53.38;101662.31;3615298;39;20059;-66
2023/10/02 11:42:53;;;;;;;17.10;10.30;;;;;;;27.81;52.27;101654.19;3613065;39;20063;-63
2023/10/02 11:45:19;;;;;;;17.25;9.85;;;;;;;28.05;51.94;101657.75;3616904;39;20119;-64
2023/10/02 11:47:45;;;;;;;18.73;10.15;;;;;;;28.10;50.59;101660.78;3615850;39;20079;-65
2023/10/02 11:50:15;;;;;;;15.55;10.05;;;;;;;28.10;51.31;101645.09;3615173;39;20065;-63
2023/10/02 11:52:41;;;;;;;20.02;10.50;;;;;;;27.89;51.82;101620.09;3619207;39;20326;-65
2023/10/02 11:55:07;;;;;;;17.40;10.20;;;;;;;27.75;50.89;101641.09;3613539;39;20054;-65
2023/10/02 11:57:33;;;;;;;20.55;10.02;;;;;;;27.62;53.09;101638.97;3613960;39;20421;-64
2023/10/02 12:00:08;;;;;;;16.85;9.80;;;;;;;27.45;52.56;101641.03;3616253;39;20051;-64
2023/10/02 12:02:33;;;;;;;15.63;9.57;;;;;;;27.43;53.47;101636.72;3615206;39;20051;-64
2023/10/02 12:04:59;;;;;;;17.73;10.05;;;;;;;27.26;52.96;101636.00;3618235;39;20050;-65
2023/10/02 12:07:24;;;;;;;17.02;9.63;;;;;;;27.13;53.54;101636.59;3618021;39;20371;-65
2023/10/02 12:09:52;;;;;;;15.50;9.38;;;;;;;26.93;53.42;101632.63;3612709;39;20298;-64
2023/10/02 12:12:18;;;;;;;17.48;9.90;;;;;;;26.75;54.02;101631.00;3613447;39;20055;-64
2023/10/02 12:14:43;;;;;;;16.92;9.38;;;;;;;26.59;54.55;101620.91;3618036;39;20085;-64
2023/10/02 12:17:11;;;;;;;15.18;9.48;;;;;;;26.46;54.46;101620.59;3613239;39;20058;-63
2023/10/02 12:19:39;;;;;;;19.15;10.52;;;;;;;26.26;55.98;101605.53;3614874;39;20087;-64
2023/10/02 12:22:08;;;;;;;16.83;10.20;;;;;;;26.34;54.65;101619.28;3614885;39;20050;-65
2023/10/02 12:24:36;;;;;;;15.75;9.32;;;;;;;26.42;55.73;101621.13;3612917;39;20066;-63
2023/10/02 12:27:04;;;;;;;15.85;9.38;;;;;;;26.38;55.14;101618.72;3612934;39;20314;-63
2023/10/02 12:29:30;;;;;;;18.40;9.52;;;;;;;26.38;56.13;101626.16;3613550;39;20099;-63
2023/10/02 12:32:00;;;;;;;20.42;10.50;;;;;;;26.22;56.18;101584.88;3614510;39;20043;-65
2023/10/02 12:34:27;;;;;;;15.85;9.63;;;;;;;26.48;55.87;101612.16;3613871;39;20119;-65
2023/10/02 12:36:54;;;;;;;20.00;10.07;;;;;;;26.48;56.44;101607.50;3614793;39;20050;-65
2023/10/02 12:39:22;;;;;;;15.80;9.18;;;;;;;26.55;56.32;101611.28;3614020;39;20070;-63
2023/10/02 12:41:48;;;;;;;17.63;10.18;;;;;;;26.98;54.70;101597.88;3614786;39;20051;-63